Time;durP1;ratioP1;P1;durP2;ratioP2;P2;SDS_P1;SDS_P2;PMS_P1;PMS_P2;Temp;Humidity;BMP_temperature;BMP_pressure;BME280_temperature;BME280_humidity;BME280_pressure;Samples;Min_cycle;Max_cycle;Signal;HPM_P1;HPM_P2
2022/03/27 00:00:36;;;;;;;24.52;10.48;;;;;;;14.57;33.56;99488.84;4418234;32;20121;-78
2022/03/27 00:03:02;;;;;;;26.73;12.00;;;;;;;14.49;33.71;99485.78;4425201;32;20413;-77
2022/03/27 00:05:27;;;;;;;24.95;10.18;;;;;;;14.42;33.82;99485.28;4411197;32;20412;-77
2022/03/27 00:07:53;;;;;;;29.12;10.43;;;;;;;14.60;33.54;99486.00;4425099;32;20425;-80
2022/03/27 00:10:18;;;;;;;27.35;11.32;;;;;;;14.40;33.88;99488.97;4424821;32;20118;-82
2022/03/27 00:12:43;;;;;;;25.70;10.27;;;;;;;14.63;33.40;99487.62;4411010;32;20128;-81
2022/03/27 00:15:09;;;;;;;25.80;11.07;;;;;;;14.50;33.58;99484.81;4411155;32;20139;-80
2022/03/27 00:17:35;;;;;;;25.62;10.75;;;;;;;14.26;34.03;99484.50;4426309;32;20089;-80
2022/03/27 00:20:03;;;;;;;23.73;11.32;;;;;;;14.41;33.89;99477.41;4430689;32;20118;-80
2022/03/27 00:22:29;;;;;;;23.02;10.15;;;;;;;14.41;33.91;99482.72;4424920;32;20101;-77
2022/03/27 00:24:56;;;;;;;26.05;10.98;;;;;;;14.39;33.96;99469.56;4424945;32;20089;-79
2022/03/27 00:27:22;;;;;;;26.12;10.57;;;;;;;14.40;34.01;99481.88;4411209;32;20089;-78
2022/03/27 00:29:47;;;;;;;25.73;10.82;;;;;;;14.41;33.95;99475.63;4411064;32;20144;-78
2022/03/27 00:32:12;;;;;;;25.92;10.52;;;;;;;14.46;33.85;99486.81;4411132;32;20137;-78
2022/03/27 00:34:38;;;;;;;27.10;10.90;;;;;;;14.51;33.72;99484.75;4424917;32;20413;-79
2022/03/27 00:37:04;;;;;;;24.92;11.15;;;;;;;14.21;34.22;99490.03;4437785;32;20159;-78
2022/03/27 00:39:29;;;;;;;23.65;11.12;;;;;;;14.30;34.03;99489.50;4440365;32;20093;-77
2022/03/27 00:41:55;;;;;;;24.90;11.27;;;;;;;14.13;34.32;99489.66;4440396;32;20445;-78
2022/03/27 00:44:21;;;;;;;23.55;11.05;;;;;;;14.25;34.18;99490.72;4440168;32;20106;-78
2022/03/27 00:46:46;;;;;;;23.20;10.93;;;;;;;14.19;34.25;99496.38;4440264;32;20410;-79
2022/03/27 00:49:12;;;;;;;24.25;10.82;;;;;;;14.33;34.03;99497.28;4440220;32;20388;-78
2022/03/27 00:51:37;;;;;;;25.23;11.60;;;;;;;14.22;34.19;99488.28;4440333;32;20090;-79
2022/03/27 00:54:04;;;;;;;25.23;11.30;;;;;;;14.26;34.08;99488.00;4438067;32;20140;-78
2022/03/27 00:56:29;;;;;;;23.40;10.70;;;;;;;14.34;33.97;99490.19;4438863;32;20057;-78
2022/03/27 00:58:55;;;;;;;24.77;11.73;;;;;;;14.24;34.20;99496.97;4440265;32;20155;-78
2022/03/27 01:01:32;;;;;;;27.90;11.32;;;;;;;14.04;34.59;99499.00;4426184;32;20097;-79
2022/03/27 01:03:58;;;;;;;24.40;9.95;;;;;;;14.05;34.60;99491.88;4440253;32;20089;-79
2022/03/27 01:06:38;;;;;;;26.35;11.52;;;;;;;14.04;34.68;99491.03;4440012;32;20085;-78
2022/03/27 01:11:50;;;;;;;24.67;10.45;;;;;;;13.90;34.95;99497.09;4426985;32;20140;-79
2022/03/27 01:14:24;;;;;;;22.70;10.65;;;;;;;13.92;34.93;99492.56;4439510;32;20357;-78
2022/03/27 01:17:01;;;;;;;26.30;10.30;;;;;;;13.92;35.00;99492.56;4439463;32;20077;-78
2022/03/27 01:19:27;;;;;;;25.55;11.10;;;;;;;13.99;34.89;99501.03;4440283;32;20222;-78
2022/03/27 01:21:52;;;;;;;26.20;11.20;;;;;;;13.90;35.18;99496.25;4439963;32;20441;-78
2022/03/27 01:24:18;;;;;;;25.60;10.80;;;;;;;14.11;34.87;99497.66;4425914;32;20081;-77
2022/03/27 01:26:44;;;;;;;24.92;10.27;;;;;;;14.08;35.00;99505.81;4439912;32;20090;-78
2022/03/27 01:29:09;;;;;;;25.65;11.12;;;;;;;14.02;35.21;99498.19;4423898;32;20169;-77
2022/03/27 01:31:35;;;;;;;25.62;11.02;;;;;;;14.21;34.89;99510.41;4424699;32;20116;-78
2022/03/27 01:34:01;;;;;;;28.77;11.77;;;;;;;13.89;35.42;99511.31;4424515;32;20418;-78
2022/03/27 01:36:34;;;;;;;23.87;10.63;;;;;;;14.08;35.12;99512.87;4424103;32;20094;-78
2022/03/27 01:39:00;;;;;;;27.70;10.98;;;;;;;14.22;34.86;99517.41;4424668;32;20120;-79
2022/03/27 01:41:26;;;;;;;26.08;10.80;;;;;;;14.26;34.72;99518.94;4424494;32;20093;-79
2022/03/27 01:43:51;;;;;;;25.00;11.18;;;;;;;13.99;35.30;99514.28;4424362;32;20111;-78
2022/03/27 01:46:17;;;;;;;27.45;11.32;;;;;;;14.18;34.96;99526.47;4424879;32;20101;-78
2022/03/27 01:48:42;;;;;;;25.30;11.12;;;;;;;14.20;34.82;99525.44;4424275;32;20087;-77
2022/03/27 01:51:08;;;;;;;25.02;11.15;;;;;;;14.09;35.07;99525.22;4424372;32;20090;-79
2022/03/27 01:53:37;;;;;;;25.45;10.65;;;;;;;14.13;35.03;99532.03;4424140;32;20081;-78
2022/03/27 01:56:03;;;;;;;25.20;11.05;;;;;;;14.14;35.00;99529.31;4410275;32;20184;-78
2022/03/27 01:58:30;;;;;;;21.95;10.45;;;;;;;14.04;35.28;99527.25;4424022;32;20094;-77
2022/03/27 02:00:56;;;;;;;23.45;10.55;;;;;;;14.11;35.09;99536.56;4410422;32;20484;-77
2022/03/27 02:03:22;;;;;;;26.27;10.65;;;;;;;14.15;35.10;99540.75;4424853;32;20094;-77
2022/03/27 02:05:47;;;;;;;28.40;11.25;;;;;;;14.05;35.21;99536.94;4425128;32;20074;-77
2022/03/27 02:08:13;;;;;;;25.95;11.35;;;;;;;14.00;35.38;99538.97;4425993;32;20442;-78
2022/03/27 02:10:40;;;;;;;29.73;11.60;;;;;;;13.36;36.14;99539.78;4425889;32;20090;-78
2022/03/27 02:13:14;;;;;;;25.15;10.85;;;;;;;13.67;35.63;99540.75;4426091;32;20081;-78
2022/03/27 02:15:40;;;;;;;25.80;11.10;;;;;;;13.91;35.31;99532.41;4412018;32;20441;-78
2022/03/27 02:18:05;;;;;;;25.80;10.60;;;;;;;13.63;36.29;99538.38;4425799;32;20089;-78
2022/03/27 02:20:31;;;;;;;26.12;10.60;;;;;;;13.79;36.04;99544.56;4425898;32;20148;-77
2022/03/27 02:22:56;;;;;;;28.55;11.02;;;;;;;13.98;35.58;99541.69;4414188;32;20176;-77
2022/03/27 02:25:22;;;;;;;23.90;10.35;;;;;;;13.90;36.01;99543.94;4440988;32;20429;-78
2022/03/27 02:27:48;;;;;;;23.87;10.32;;;;;;;14.02;35.99;99545.88;4441315;32;20120;-78
2022/03/27 02:30:15;;;;;;;25.73;11.50;;;;;;;14.04;36.28;99546.69;4441154;32;20090;-78
2022/03/27 02:32:41;;;;;;;26.70;11.07;;;;;;;14.31;35.83;99553.97;4441162;32;20210;-78
2022/03/27 02:35:06;;;;;;;23.77;10.02;;;;;;;14.21;36.06;99551.00;4441130;32;20138;-79
2022/03/27 02:37:32;;;;;;;26.60;10.60;;;;;;;14.43;35.62;99547.97;4441203;32;20098;-79
2022/03/27 02:39:57;;;;;;;22.10;10.20;;;;;;;14.31;35.92;99552.19;4438539;32;20437;-78
2022/03/27 02:42:22;;;;;;;24.12;10.82;;;;;;;14.48;35.79;99560.94;4440854;32;20124;-78
2022/03/27 02:44:48;;;;;;;25.73;11.18;;;;;;;14.33;36.20;99563.56;4440998;32;20478;-79
2022/03/27 02:47:13;;;;;;;26.95;11.10;;;;;;;14.42;36.04;99566.59;4441136;32;20437;-78
2022/03/27 02:49:38;;;;;;;25.67;11.55;;;;;;;14.44;36.08;99562.06;4441100;32;20089;-78
2022/03/27 02:52:04;;;;;;;22.27;9.88;;;;;;;14.14;36.85;99560.25;4441077;32;20489;-79
2022/03/27 02:54:30;;;;;;;23.98;10.32;;;;;;;14.36;36.62;99558.06;4441002;32;20086;-79
2022/03/27 02:56:55;;;;;;;22.17;10.02;;;;;;;14.35;37.37;99561.66;4426276;32;20098;-77
2022/03/27 02:59:22;;;;;;;22.15;9.95;;;;;;;14.34;37.48;99557.28;4440169;32;20133;-79
2022/03/27 03:01:47;;;;;;;23.73;9.85;;;;;;;14.19;37.97;99557.34;4438008;32;20105;-78
2022/03/27 03:04:14;;;;;;;22.00;9.98;;;;;;;14.10;38.50;99559.56;4411848;32;20109;-78
2022/03/27 03:06:41;;;;;;;24.90;9.60;;;;;;;14.21;38.49;99564.25;4411622;32;20098;-78
2022/03/27 03:09:07;;;;;;;19.75;9.40;;;;;;;14.28;38.49;99568.25;4425575;32;20106;-79
2022/03/27 03:11:33;;;;;;;26.65;10.32;;;;;;;14.46;38.05;99566.34;4425712;32;20129;-77
2022/03/27 03:13:58;;;;;;;20.50;9.07;;;;;;;14.31;38.07;99568.09;4425571;32;20100;-78
2022/03/27 03:16:25;;;;;;;22.13;8.90;;;;;;;13.99;38.73;99567.28;4424746;32;20093;-78
2022/03/27 03:18:51;;;;;;;19.30;8.83;;;;;;;14.23;38.43;99569.47;4426173;32;20127;-79
2022/03/27 03:21:16;;;;;;;23.73;10.32;;;;;;;14.43;38.03;99576.25;4440848;32;20546;-78
2022/03/27 03:23:42;;;;;;;20.95;9.23;;;;;;;14.12;38.41;99578.03;4440817;32;20094;-79
2022/03/27 03:26:07;;;;;;;21.75;9.52;;;;;;;14.31;38.04;99583.13;4440821;32;20433;-78
2022/03/27 03:28:33;;;;;;;20.60;8.93;;;;;;;14.24;38.40;99589.72;4426702;32;20491;-78
2022/03/27 03:30:59;;;;;;;21.62;9.40;;;;;;;14.01;39.41;99591.03;4440809;32;20085;-78
2022/03/27 03:33:26;;;;;;;20.95;9.10;;;;;;;14.00;39.54;99602.56;4440771;32;20353;-77
2022/03/27 03:35:52;;;;;;;21.90;8.80;;;;;;;13.80;40.03;99608.97;4439245;32;20437;-79
2022/03/27 03:38:17;;;;;;;22.75;9.52;;;;;;;13.64;40.12;99606.28;4440769;32;20098;-78
2022/03/27 03:40:42;;;;;;;23.85;9.75;;;;;;;13.86;39.49;99600.66;4413938;32;20125;-78
2022/03/27 03:43:10;;;;;;;20.40;9.73;;;;;;;13.64;39.64;99604.50;4440775;32;20129;-78
2022/03/27 03:45:35;;;;;;;23.85;9.90;;;;;;;13.68;39.51;99605.19;4440811;32;20093;-79
2022/03/27 03:48:01;;;;;;;22.23;10.18;;;;;;;13.77;39.30;99600.25;4426689;32;20415;-78
2022/03/27 03:50:27;;;;;;;27.23;10.50;;;;;;;13.67;39.57;99604.31;4440686;32;20085;-78
2022/03/27 03:52:53;;;;;;;24.67;10.38;;;;;;;13.60;39.55;99620.59;4439187;32;20211;-79
2022/03/27 03:55:18;;;;;;;19.90;9.05;;;;;;;13.50;39.67;99621.13;4440471;32;20101;-78
2022/03/27 03:57:44;;;;;;;23.30;9.95;;;;;;;13.82;39.06;99615.88;4440536;32;20361;-77
2022/03/27 04:00:10;;;;;;;22.73;10.30;;;;;;;13.70;39.31;99620.03;4440697;32;20111;-78
2022/03/27 04:02:35;;;;;;;22.23;10.93;;;;;;;13.75;39.09;99625.97;4420030;32;20090;-79
2022/03/27 04:05:01;;;;;;;22.13;9.93;;;;;;;13.69;39.35;99628.06;4425274;32;20086;-78
2022/03/27 04:07:26;;;;;;;21.25;9.77;;;;;;;13.50;39.78;99626.41;4425265;32;20110;-78
2022/03/27 04:09:52;;;;;;;22.05;10.27;;;;;;;13.74;39.26;99628.69;4424974;32;20085;-78
2022/03/27 04:12:17;;;;;;;23.80;9.88;;;;;;;13.60;39.58;99637.38;4425122;32;20462;-77
2022/03/27 04:14:43;;;;;;;21.75;9.70;;;;;;;13.41;40.03;99642.78;4425163;32;20499;-79
2022/03/27 04:17:09;;;;;;;21.73;9.90;;;;;;;13.52;39.73;99643.06;4425031;32;20116;-77
2022/03/27 04:19:34;;;;;;;22.62;10.15;;;;;;;13.61;39.52;99647.00;4436887;32;20082;-79
2022/03/27 04:22:00;;;;;;;20.02;9.70;;;;;;;13.68;39.35;99651.06;4440416;32;20094;-77
2022/03/27 04:24:25;;;;;;;21.60;10.43;;;;;;;13.55;39.43;99660.56;4440466;32;20440;-77
2022/03/27 04:26:51;;;;;;;23.92;10.75;;;;;;;13.54;39.34;99665.03;4426312;32;20358;-77
2022/03/27 04:29:17;;;;;;;22.33;10.32;;;;;;;13.48;39.71;99668.00;4439667;32;20389;-78
2022/03/27 04:31:42;;;;;;;26.58;11.15;;;;;;;13.14;40.32;99674.16;4440415;32;20108;-78
2022/03/27 04:34:08;;;;;;;21.70;10.02;;;;;;;13.12;40.32;99676.00;4426510;32;20133;-78
2022/03/27 04:36:34;;;;;;;24.50;10.23;;;;;;;13.03;40.46;99689.69;4421765;32;20140;-77
2022/03/27 04:38:59;;;;;;;21.85;10.40;;;;;;;13.32;39.92;99688.25;4424942;32;20507;-78
2022/03/27 04:41:25;;;;;;;22.92;9.95;;;;;;;13.42;39.76;99691.28;4411129;32;20112;-77
2022/03/27 04:43:50;;;;;;;26.90;10.98;;;;;;;13.48;39.44;99688.31;4424986;32;20493;-78
2022/03/27 04:46:16;;;;;;;24.48;11.00;;;;;;;13.56;39.48;99697.56;4424800;32;20441;-78
2022/03/27 04:48:43;;;;;;;25.88;10.40;;;;;;;13.20;40.01;99704.72;4411032;32;20414;-78
2022/03/27 04:51:08;;;;;;;24.92;10.48;;;;;;;13.42;39.60;99708.00;4425079;32;20093;-76
2022/03/27 04:53:34;;;;;;;24.87;10.68;;;;;;;13.48;39.53;99715.66;4424997;32;20128;-77
2022/03/27 04:55:59;;;;;;;22.92;9.27;;;;;;;13.47;39.67;99716.56;4438663;32;20447;-78
2022/03/27 04:58:24;;;;;;;23.83;10.07;;;;;;;13.67;39.36;99720.81;4426077;32;20093;-77
2022/03/27 05:00:50;;;;;;;22.58;10.68;;;;;;;13.78;39.41;99720.25;4426109;32;20093;-76
2022/03/27 05:03:15;;;;;;;20.83;10.05;;;;;;;13.96;39.19;99721.94;4440325;32;20093;-77
2022/03/27 05:05:41;;;;;;;22.33;10.50;;;;;;;14.08;39.23;99735.44;4426313;32;20081;-77
2022/03/27 05:08:07;;;;;;;22.08;10.48;;;;;;;14.20;38.92;99729.50;4426183;32;20135;-77
2022/03/27 05:10:32;;;;;;;23.20;10.52;;;;;;;14.27;38.57;99730.00;4439975;32;20085;-77
2022/03/27 05:12:58;;;;;;;20.08;9.20;;;;;;;14.30;38.26;99721.91;4432600;32;20117;-77
2022/03/27 05:15:23;;;;;;;24.48;10.32;;;;;;;14.42;38.37;99736.28;4424733;32;20133;-77
2022/03/27 05:17:55;;;;;;;23.33;10.25;;;;;;;14.50;38.77;99744.66;4424774;32;20082;-78
2022/03/27 05:20:21;;;;;;;25.02;11.95;;;;;;;14.66;38.08;99748.19;4424536;32;20161;-79
2022/03/27 05:22:47;;;;;;;23.55;11.15;;;;;;;14.71;36.92;99742.63;4410843;32;20132;-77
2022/03/27 05:25:15;;;;;;;23.98;10.23;;;;;;;14.65;36.55;99741.19;4410784;32;20454;-77
2022/03/27 05:27:57;;;;;;;;;;;;;;;14.71;36.27;99735.53;4424974;32;20168;-78
2022/03/27 05:30:24;;;;;;;22.95;10.90;;;;;;;14.80;35.94;99741.28;4425310;32;21662;-77
2022/03/27 05:32:51;;;;;;;28.60;10.60;;;;;;;14.80;35.84;99735.97;4424470;32;20157;-78
2022/03/27 05:35:17;;;;;;;21.27;10.43;;;;;;;14.73;36.37;99738.94;4410672;32;20101;-79
2022/03/27 05:37:44;;;;;;;22.52;10.23;;;;;;;14.67;36.37;99741.94;4424567;32;20150;-78
2022/03/27 05:40:12;;;;;;;23.40;10.95;;;;;;;14.72;36.25;99745.19;4410249;32;20084;-78
2022/03/27 05:42:37;;;;;;;;;;;;;;;14.75;35.98;99747.66;4424657;32;20119;-79
2022/03/27 05:45:04;;;;;;;23.25;9.75;;;;;;;14.63;36.21;99747.50;4424453;32;20031;-78
2022/03/27 05:47:30;;;;;;;20.95;10.05;;;;;;;14.71;36.09;99746.12;4410500;32;20112;-79
2022/03/27 05:49:56;;;;;;;21.00;9.07;;;;;;;14.77;36.23;99752.03;4425072;32;20454;-78
2022/03/27 05:52:22;;;;;;;24.30;9.57;;;;;;;14.91;35.93;99762.72;4424596;32;20089;-79
2022/03/27 05:54:48;;;;;;;23.02;9.73;;;;;;;14.91;35.77;99768.00;4424531;32;20093;-79
2022/03/27 05:57:14;;;;;;;20.90;9.27;;;;;;;14.84;35.79;99766.69;4411365;32;20085;-75
2022/03/27 05:59:40;;;;;;;20.10;9.32;;;;;;;14.86;35.99;99762.13;4413389;32;20129;-78
2022/03/27 06:02:05;;;;;;;19.95;9.10;;;;;;;14.89;36.05;99776.09;4417047;32;20472;-80
2022/03/27 06:04:30;;;;;;;21.17;9.30;;;;;;;15.03;35.87;99785.06;4424028;32;20387;-79
2022/03/27 06:06:56;;;;;;;20.58;9.48;;;;;;;15.07;35.93;99781.28;4426535;32;20089;-79
2022/03/27 06:09:21;;;;;;;19.98;8.55;;;;;;;15.12;35.97;99785.41;4431337;32;20409;-78
2022/03/27 06:11:47;;;;;;;17.40;8.57;;;;;;;15.23;36.20;99786.56;4425256;32;20101;-77
2022/03/27 06:14:13;;;;;;;16.73;7.53;;;;;;;15.38;36.12;99792.78;4425439;32;20101;-78
2022/03/27 06:16:38;;;;;;;17.37;8.00;;;;;;;15.43;36.23;99783.62;4425291;32;20144;-78
2022/03/27 06:19:04;;;;;;;19.27;9.02;;;;;;;15.51;36.37;99791.97;4425127;32;20089;-76
2022/03/27 06:21:29;;;;;;;18.17;7.87;;;;;;;15.61;35.74;99791.44;4431173;32;20457;-77
2022/03/27 06:23:55;;;;;;;19.15;8.82;;;;;;;15.69;35.48;99802.47;4423821;32;20097;-77
2022/03/27 06:26:21;;;;;;;18.25;9.18;;;;;;;15.71;35.64;99806.72;4435095;32;20088;-77
2022/03/27 06:28:46;;;;;;;18.23;8.25;;;;;;;15.76;35.29;99811.81;4424676;32;20109;-76
2022/03/27 06:31:12;;;;;;;19.80;8.68;;;;;;;15.81;35.01;99814.19;4439098;32;20132;-77
2022/03/27 06:33:37;;;;;;;19.12;8.82;;;;;;;15.89;34.82;99812.75;4438796;32;20116;-77
2022/03/27 06:36:03;;;;;;;19.10;9.40;;;;;;;15.83;34.84;99815.78;4425087;32;20769;-76
2022/03/27 06:38:31;;;;;;;19.42;8.57;;;;;;;15.95;34.70;99814.19;4425897;32;20109;-77
2022/03/27 06:40:57;;;;;;;19.23;8.30;;;;;;;15.99;34.69;99823.69;4423684;32;20457;-78
2022/03/27 06:43:25;;;;;;;18.37;8.80;;;;;;;15.98;34.71;99823.81;4423706;32;20116;-78
2022/03/27 06:45:51;;;;;;;18.77;9.38;;;;;;;15.99;34.66;99826.34;4423487;32;20102;-76
2022/03/27 06:48:17;;;;;;;21.48;9.90;;;;;;;15.97;34.57;99830.91;4409591;32;20132;-79
2022/03/27 06:50:44;;;;;;;16.77;8.10;;;;;;;16.05;34.58;99830.44;4423849;32;20140;-79
2022/03/27 06:53:10;;;;;;;18.48;8.77;;;;;;;16.01;34.80;99836.88;4412072;32;20228;-77
2022/03/27 06:55:36;;;;;;;18.80;8.43;;;;;;;15.91;34.96;99836.59;4425667;32;20093;-76
2022/03/27 06:58:02;;;;;;;18.12;8.38;;;;;;;16.17;34.88;99843.00;4425841;32;20474;-78
2022/03/27 07:03:11;;;;;;;16.42;7.55;;;;;;;16.28;34.67;99845.00;4425566;32;20167;-76
2022/03/27 07:05:39;;;;;;;17.00;8.48;;;;;;;16.20;34.80;99847.28;4411658;32;20361;-76
2022/03/27 07:08:14;;;;;;;;;;;;;;;16.27;34.74;99844.16;4425901;32;20097;-78
2022/03/27 07:10:41;;;;;;;17.12;7.62;;;;;;;16.36;34.36;99844.53;4425273;32;20336;-78
2022/03/27 07:13:08;;;;;;;16.90;7.50;;;;;;;16.19;34.54;99850.88;4421849;32;20113;-78
2022/03/27 07:15:35;;;;;;;18.90;7.70;;;;;;;16.33;34.51;99848.22;4411957;32;20123;-78
2022/03/27 07:18:01;;;;;;;15.45;6.62;;;;;;;16.31;34.58;99850.97;4425805;32;20089;-76
2022/03/27 07:20:28;;;;;;;16.75;8.05;;;;;;;16.45;34.27;99849.28;4425293;32;20123;-77
2022/03/27 07:22:56;;;;;;;16.80;7.90;;;;;;;16.39;34.45;99849.66;4411912;32;20114;-77
2022/03/27 07:25:22;;;;;;;16.52;7.93;;;;;;;16.38;34.43;99858.56;4411919;32;20543;-78
2022/03/27 07:27:48;;;;;;;15.82;8.57;;;;;;;16.54;34.28;99855.84;4425428;32;20120;-77
2022/03/27 07:30:14;;;;;;;20.30;7.90;;;;;;;16.51;34.10;99863.06;4425369;32;20097;-78
2022/03/27 07:32:39;;;;;;;18.77;8.20;;;;;;;16.51;34.15;99872.81;4411444;32;20410;-78
2022/03/27 07:35:07;;;;;;;18.00;7.85;;;;;;;16.54;34.21;99871.81;4411192;32;20112;-76
2022/03/27 07:37:34;;;;;;;16.25;7.90;;;;;;;16.58;34.11;99876.81;4425856;32;20086;-76
2022/03/27 07:40:03;;;;;;;18.23;8.65;;;;;;;16.62;34.05;99874.84;4411313;32;20117;-76
2022/03/27 07:42:31;;;;;;;18.35;7.75;;;;;;;16.78;33.68;99878.22;4398554;32;20102;-77
2022/03/27 07:44:57;;;;;;;15.15;7.28;;;;;;;16.85;33.65;99878.75;4424841;32;20207;-76
2022/03/27 07:47:22;;;;;;;18.35;7.82;;;;;;;16.85;34.00;99871.63;4425109;32;20101;-78
2022/03/27 07:49:48;;;;;;;15.80;7.72;;;;;;;16.89;34.07;99870.47;4424822;32;20124;-78
2022/03/27 07:52:13;;;;;;;15.70;7.47;;;;;;;16.93;33.92;99863.16;4424397;32;20134;-83
2022/03/27 07:54:39;;;;;;;16.85;7.80;;;;;;;17.03;33.96;99872.25;4419218;32;20086;-81
2022/03/27 07:57:05;;;;;;;17.30;7.50;;;;;;;17.06;33.81;99874.72;4436925;32;20085;-80
2022/03/27 07:59:30;;;;;;;15.90;7.05;;;;;;;17.03;33.80;99874.06;4439743;32;20098;-81
2022/03/27 08:01:55;;;;;;;15.60;6.97;;;;;;;16.97;33.96;99871.78;4423036;32;20132;-81
2022/03/27 08:04:21;;;;;;;15.20;7.22;;;;;;;17.01;34.14;99874.16;4432075;32;20361;-81
2022/03/27 08:06:47;;;;;;;15.10;6.53;;;;;;;17.01;34.28;99875.97;4439869;32;20081;-81
2022/03/27 08:09:13;;;;;;;16.10;6.97;;;;;;;17.04;34.35;99873.97;4425847;32;20124;-89
2022/03/27 08:11:41;;;;;;;13.82;6.40;;;;;;;17.12;34.26;99883.28;4438666;32;20147;-79
2022/03/27 08:14:08;;;;;;;;;;;;;;;17.00;34.53;99874.28;4439639;32;20090;-81
2022/03/27 08:16:34;;;;;;;14.70;6.47;;;;;;;17.10;34.30;99864.72;4412316;32;20045;-80
2022/03/27 08:18:59;;;;;;;15.65;6.53;;;;;;;17.15;34.47;99864.41;4439554;32;20152;-77
2022/03/27 08:21:25;;;;;;;20.67;7.85;;;;;;;17.14;34.72;99868.91;4425304;32;20089;-78
2022/03/27 08:23:50;;;;;;;14.98;6.68;;;;;;;17.13;34.51;99869.84;4439187;32;20120;-78
2022/03/27 08:29:03;;;;;;;14.57;6.80;;;;;;;17.13;34.55;99872.50;4439728;32;20147;-76
2022/03/27 08:31:30;;;;;;;16.05;6.85;;;;;;;16.92;34.94;99868.56;4438796;32;20438;-76
2022/03/27 08:33:56;;;;;;;15.55;6.80;;;;;;;17.03;34.64;99871.41;4439123;32;20097;-76
2022/03/27 08:36:22;;;;;;;16.55;6.93;;;;;;;17.08;34.63;99872.81;4425052;32;20104;-74
2022/03/27 08:38:47;;;;;;;16.30;7.35;;;;;;;17.12;35.01;99872.63;4424162;32;20175;-75
2022/03/27 08:41:15;;;;;;;16.30;6.43;;;;;;;17.16;34.65;99867.00;4439539;32;20136;-73
2022/03/27 08:43:42;;;;;;;;;;;;;;;17.37;34.37;99863.91;4439483;32;20097;-76
2022/03/27 08:46:08;;;;;;;15.80;7.32;;;;;;;17.44;34.19;99871.37;4439297;32;20038;-74
2022/03/27 08:48:36;;;;;;;14.60;6.97;;;;;;;17.21;34.40;99877.34;4436984;32;20586;-76
2022/03/27 08:51:26;;;;;;;16.40;7.18;;;;;;;17.48;34.14;99872.00;4425320;32;20108;-76
2022/03/27 08:54:16;;;;;;;16.08;6.95;;;;;;;17.48;34.01;99872.00;4414246;32;20518;-74
2022/03/27 08:56:47;;;;;;;15.98;7.55;;;;;;;17.47;34.16;99870.31;4428490;32;20085;-74
2022/03/27 08:59:13;;;;;;;16.17;7.28;;;;;;;17.39;34.66;99867.31;4422860;32;20393;-74
2022/03/27 09:01:39;;;;;;;18.77;7.57;;;;;;;17.51;34.24;99882.47;4421769;32;20105;-74
2022/03/27 09:04:05;;;;;;;14.82;7.70;;;;;;;17.44;34.11;99870.50;4427167;32;71635;-74
2022/03/27 09:06:30;;;;;;;15.15;7.25;;;;;;;17.45;34.72;99878.41;4424873;32;20093;-76
2022/03/27 09:08:56;;;;;;;14.63;6.85;;;;;;;17.50;34.45;99880.78;4438705;32;20113;-74
2022/03/27 09:11:23;;;;;;;15.13;6.87;;;;;;;17.49;34.51;99877.25;4438503;32;20465;-76
2022/03/27 09:13:50;;;;;;;16.33;7.80;;;;;;;17.63;34.41;99872.81;4415688;32;20090;-75
2022/03/27 09:16:16;;;;;;;18.23;8.10;;;;;;;17.60;34.25;99883.69;4434167;32;20107;-76
2022/03/27 09:18:48;;;;;;;15.38;7.43;;;;;;;17.57;34.11;99883.88;4422573;32;20156;-75
2022/03/27 09:21:15;;;;;;;16.12;7.35;;;;;;;17.67;34.03;99877.84;4432953;32;20125;-74
2022/03/27 09:23:41;;;;;;;20.40;7.28;;;;;;;17.73;34.03;99871.28;4438177;32;20115;-74
2022/03/27 09:26:11;;;;;;;16.90;7.80;;;;;;;17.68;33.66;99879.53;4438219;32;20085;-74
2022/03/27 09:28:38;;;;;;;21.15;8.13;;;;;;;17.75;33.56;99874.69;4438127;32;20093;-74
2022/03/27 09:31:06;;;;;;;16.58;7.20;;;;;;;17.65;33.90;99876.22;4438424;32;20101;-76
2022/03/27 09:33:46;;;;;;;;;;;;;;;17.71;33.79;99877.63;4425195;32;20089;-77
2022/03/27 09:36:12;;;;;;;;;;;;;;;17.81;33.76;99866.28;4439189;32;19981;-74
2022/03/27 09:38:38;;;;;;;15.50;7.15;;;;;;;17.76;33.75;99865.72;4432387;32;19992;-74
2022/03/27 09:41:05;;;;;;;17.30;7.62;;;;;;;17.71;33.71;99865.16;4421682;32;20148;-74
2022/03/27 09:43:30;;;;;;;15.88;7.12;;;;;;;17.82;33.49;99864.44;4411686;32;20117;-74
2022/03/27 09:46:01;;;;;;;17.73;7.95;;;;;;;17.81;33.52;99866.28;4422252;32;20112;-74
2022/03/27 09:48:27;;;;;;;19.60;7.93;;;;;;;17.78;33.33;99866.47;4414897;32;20181;-74
2022/03/27 09:51:03;;;;;;;15.93;7.37;;;;;;;17.82;33.53;99859.13;4435379;32;20093;-75
2022/03/27 09:53:30;;;;;;;15.98;7.57;;;;;;;17.93;33.63;99863.78;4438760;32;20164;-77
2022/03/27 09:55:56;;;;;;;20.05;8.40;;;;;;;18.01;33.48;99862.28;4420499;32;20683;-73
2022/03/27 09:58:46;;;;;;;18.58;9.10;;;;;;;18.07;33.56;99863.66;4430379;32;20097;-74
2022/03/27 10:01:20;;;;;;;17.42;7.87;;;;;;;18.03;33.22;99863.03;4438147;32;20115;-76
2022/03/27 10:04:08;;;;;;;16.05;7.40;;;;;;;18.10;33.05;99868.81;4424044;32;20094;-78
2022/03/27 10:06:34;;;;;;;16.50;7.45;;;;;;;18.02;33.13;99865.78;4434418;32;20097;-76
2022/03/27 10:09:04;;;;;;;17.35;8.07;;;;;;;18.00;33.06;99857.03;4437678;32;20101;-78
2022/03/27 10:11:30;;;;;;;17.40;8.30;;;;;;;18.01;32.85;99864.94;4424492;32;20162;-78
2022/03/27 10:13:56;;;;;;;18.00;7.82;;;;;;;18.03;32.72;99859.50;4436880;32;20125;-80
2022/03/27 10:16:30;;;;;;;15.82;8.35;;;;;;;17.94;32.92;99857.47;4423666;32;20081;-79
2022/03/27 10:19:34;;;;;;;16.73;7.95;;;;;;;18.02;32.96;99855.13;4438707;32;20097;-79
2022/03/27 10:22:01;;;;;;;17.75;7.80;;;;;;;18.04;32.81;99846.06;4363284;32;20131;-78
2022/03/27 10:24:30;;;;;;;16.80;7.90;;;;;;;18.15;32.81;99863.13;4375687;32;20090;-79
2022/03/27 10:26:58;;;;;;;19.73;7.95;;;;;;;18.21;32.66;99860.03;4373259;32;20114;-80
2022/03/27 10:29:25;;;;;;;20.45;8.45;;;;;;;18.24;32.28;99871.34;4365385;32;20099;-79
2022/03/27 10:31:51;;;;;;;19.97;8.53;;;;;;;18.40;31.95;99862.28;4354718;32;20111;-78
2022/03/27 10:34:17;;;;;;;15.35;8.02;;;;;;;18.34;31.64;99862.72;4360889;32;20471;-78
2022/03/27 10:37:00;;;;;;;17.77;8.48;;;;;;;18.28;32.21;99861.34;4364681;32;20470;-78
2022/03/27 10:39:29;;;;;;;16.35;7.43;;;;;;;18.17;32.04;99867.41;4364330;32;20114;-77
2022/03/27 10:42:02;;;;;;;16.30;8.30;;;;;;;18.27;32.51;99860.50;4372930;32;20855;-80
2022/03/27 10:44:40;;;;;;;19.80;8.10;;;;;;;18.18;32.16;99865.59;4376987;32;20560;-79
2022/03/27 10:47:16;;;;;;;15.93;7.68;;;;;;;18.33;31.81;99861.00;4370728;32;20181;-78
2022/03/27 10:50:02;;;;;;;15.25;7.25;;;;;;;18.09;31.98;99856.41;4368663;32;20103;-80
2022/03/27 10:52:34;;;;;;;18.08;8.38;;;;;;;18.09;32.16;99853.75;4372620;32;20142;-80
2022/03/27 10:55:06;;;;;;;16.33;8.23;;;;;;;18.04;32.16;99847.87;4373789;32;20090;-79
2022/03/27 10:57:36;;;;;;;17.27;8.25;;;;;;;17.98;32.07;99848.28;4404097;32;20085;-80
2022/03/27 11:00:04;;;;;;;18.35;7.20;;;;;;;18.08;32.01;99844.91;4434125;32;20110;-80
2022/03/27 11:02:44;;;;;;;16.60;8.07;;;;;;;18.31;31.46;99846.91;4424366;32;20459;-80
2022/03/27 11:05:30;;;;;;;17.08;7.32;;;;;;;18.28;31.63;99845.34;4427521;32;20121;-82
2022/03/27 11:08:17;;;;;;;17.15;7.55;;;;;;;18.31;31.42;99844.25;4440347;32;20148;-83
2022/03/27 11:10:50;;;;;;;14.93;7.15;;;;;;;18.47;31.22;99845.75;4440367;32;20444;-82
2022/03/27 11:13:30;;;;;;;16.45;8.20;;;;;;;18.45;31.14;99842.34;4436293;32;20150;-86
2022/03/27 11:16:15;;;;;;;17.98;7.60;;;;;;;18.42;31.13;99842.53;4440446;32;20114;-82
2022/03/27 11:18:41;;;;;;;16.62;7.60;;;;;;;18.51;31.11;99848.22;4440213;32;20124;-77
2022/03/27 11:21:12;;;;;;;17.17;7.70;;;;;;;18.51;31.04;99832.19;4439201;32;20093;-76
2022/03/27 11:23:39;;;;;;;19.10;7.78;;;;;;;18.48;30.99;99827.91;4427361;32;20167;-76
2022/03/27 11:26:27;;;;;;;19.12;7.03;;;;;;;18.45;31.11;99833.47;4430741;32;20101;-78
2022/03/27 11:28:54;;;;;;;16.25;7.65;;;;;;;18.42;31.00;99825.69;4405194;32;20101;-78
2022/03/27 11:31:20;;;;;;;14.57;7.32;;;;;;;18.66;30.51;99826.63;4438549;32;20174;-76
2022/03/27 11:34:04;;;;;;;16.55;7.05;;;;;;;18.70;30.42;99829.94;4439753;32;20093;-86